Adonis — TCA3256 — position and weather

sailwx.info

Track history (hours):
 
Tides and Currents Weather Stations Pressure Air Temp Water Temp Dewpoint Dewpoint Depression Visibility Wind Speed Wind Dir Waves Ship Positions

Adonis

Last reported at 2018-May-15 12:54 UTC. Time now 2018-Jun-23 06:27 UTC.
Position N 36°53' E 030°42'.
Warning: this ship's position is 38 days out of date.

Length 14 m.

Type: Passenger vessel. MMSI: 271043950.

Date/timePositionNaut miles runAvg speedWind from/ knotsBaromVisibWave heightAir tempDewpointWater temp
2018-May-15 12:54N 36°53' E 030°42'1 2.6
2018-May-15 12:30N 36°52' E 030°42'1 2.1
2018-May-15 12:00N 36°53' E 030°42'0 0.0
2018-May-15 11:30N 36°53' E 030°42'0 0.0
2018-May-15 11:00N 36°53' E 030°42'0 0.0
2018-May-15 10:30N 36°53' E 030°42'0 0.0
2018-May-15 09:48N 36°53' E 030°42'0 0.0
2018-May-15 09:03N 36°53' E 030°42'0 0.0
2018-May-15 09:00N 36°53' E 030°42'0 0.0
2018-May-15 06:24N 36°53' E 030°42'0 0.0
2018-May-15 04:54N 36°53' E 030°42'0 0.0
2018-May-15 04:18N 36°53' E 030°42'0 0.0
2018-May-14 14:23N 36°53' E 030°42'1 3.3
2018-May-14 13:59N 36°52' E 030°43'1 0.4
2018-May-14 10:26N 36°53' E 030°42'0 0.8
2018-May-14 09:59N 36°53' E 030°42'0 0.3
2018-May-14 08:22N 36°53' E 030°42'0 0.0
2018-May-14 07:58N 36°53' E 030°42'0 0.0
2018-May-13 19:40N 36°53' E 030°42'0 0.0
2018-May-13 15:31N 36°53' E 030°42'0 0.0
2018-May-13 15:28N 36°53' E 030°42'0 0.0
2018-May-13 13:10N 36°53' E 030°42'0 0.0
2018-May-13 12:58N 36°53' E 030°42'0 0.0
2018-May-13 12:10N 36°53' E 030°42'0 0.8
2018-May-13 11:41N 36°53' E 030°42'1 6.4
2018-May-13 11:29N 36°52' E 030°43'3 3.1
2018-May-13 10:40N 36°51' E 030°46'1 5.9
2018-May-13 10:30N 36°51' E 030°45'3 1.9
2018-May-13 08:54N 36°53' E 030°42'0 0.0
2018-May-13 08:30N 36°53' E 030°42'0 0.0
2018-May-13 07:57N 36°53' E 030°42'0 0.0
2018-May-13 06:48N 36°53' E 030°42'0 0.0
2018-May-13 06:05N 36°53' E 030°42'0 2.4
2018-May-13 05:57N 36°53' E 030°42'3 5.9
2018-May-13 05:30N 36°51' E 030°45'1 2.5
2018-May-13 04:58N 36°51' E 030°46'3 6.2
2018-May-13 04:29N 36°52' E 030°43'1 2.2
2018-May-13 03:57N 36°53' E 030°42'0 0.0
2018-May-13 02:39N 36°53' E 030°42'0 0.0
2018-May-13 02:27N 36°53' E 030°42'0 0.0
2018-May-13 01:57N 36°53' E 030°42'0 0.0
2018-May-13 01:21N 36°53' E 030°42'0 0.0
2018-May-13 00:57N 36°53' E 030°42'0 0.0
2018-May-13 00:27N 36°53' E 030°42'0 0.0
2018-May-12 23:33N 36°53' E 030°42'0 0.0
2018-May-12 23:27N 36°53' E 030°42'0 0.0
2018-May-12 22:51N 36°53' E 030°42'0 0.0
2018-May-12 22:27N 36°53' E 030°42'0 0.0
2018-May-12 06:19N 36°53' E 030°42'0 0.0
2018-May-12 05:55N 36°53' E 030°42'0 0.0
2018-May-12 05:28N 36°53' E 030°42'0 0.0
2018-May-12 01:28N 36°53' E 030°42'0 0.0
2018-May-11 20:10N 36°53' E 030°42'0 0.0
2018-May-11 19:58N 36°53' E 030°42'0 0.0
2018-May-11 19:28N 36°53' E 030°42'0 0.0
2018-May-11 16:40N 36°53' E 030°42'0 0.0
2018-May-11 16:27N 36°53' E 030°42'1 2.0
2018-May-11 15:58N 36°52' E 030°43'1 0.8
2018-May-11 14:42N 36°53' E 030°42'0 0.0
2018-May-11 14:30N 36°53' E 030°42'0 0.0
2018-May-11 13:39N 36°53' E 030°42'0 0.0
2018-May-11 13:30N 36°53' E 030°42'0 0.1
2018-May-11 12:41N 36°53' E 030°42'1 3.3
2018-May-11 12:28N 36°52' E 030°42'1 1.3
2018-May-11 11:51N 36°53' E 030°42'0 0.2
2018-May-11 11:24N 36°53' E 030°42'0 0.0
2018-May-11 10:51N 36°53' E 030°42'0 0.0
2018-May-11 10:30N 36°53' E 030°42'0 0.0
2018-May-11 09:54N 36°53' E 030°42'0 0.0
2018-May-11 09:30N 36°53' E 030°42'0 0.6
2018-May-11 08:57N 36°53' E 030°42'0 0.6
2018-May-11 08:24N 36°53' E 030°42'0 0.2
2018-May-11 07:52N 36°53' E 030°42'0 0.0
2018-May-11 07:28N 36°53' E 030°42'0 0.0
2018-May-11 06:49N 36°53' E 030°42'0 0.0
2018-May-11 06:22N 36°53' E 030°42'0 0.0
2018-May-11 05:22N 36°53' E 030°42'0 0.0
2018-May-11 04:58N 36°53' E 030°42'0 0.0
2018-May-11 04:16N 36°53' E 030°42'0 0.0
2018-May-11 03:46N 36°53' E 030°42'0 0.0
2018-May-11 01:22N 36°53' E 030°42'0 0.0
2018-May-11 00:55N 36°53' E 030°42'0 0.0
2018-May-11 00:25N 36°53' E 030°42'0 0.0
2018-May-10 23:52N 36°53' E 030°42'0 0.0
2018-May-10 23:28N 36°53' E 030°42'0 0.0
2018-May-10 22:55N 36°53' E 030°42'0 0.0
2018-May-10 21:58N 36°53' E 030°42'0 0.0
2018-May-10 17:10N 36°53' E 030°42'0 0.0
2018-May-10 14:55N 36°53' E 030°42'0 0.0
2018-May-10 14:13N 36°53' E 030°42'0 0.0
2018-May-10 13:16N 36°53' E 030°42'0 0.0
2018-May-10 12:58N 36°53' E 030°42'0 0.0
2018-May-10 12:28N 36°53' E 030°42'0 0.0
2018-May-10 10:19N 36°53' E 030°42'0 0.1
2018-May-10 09:59N 36°53' E 030°42'0 0.8
2018-May-10 09:30N 36°53' E 030°42'0 0.5
2018-May-10 08:40N 36°53' E 030°42'0 0.0
2018-May-10 08:28N 36°53' E 030°42'0 0.0
2018-May-10 07:49N 36°53' E 030°42'0 0.0
2018-May-10 06:04N 36°53' E 030°42'0 0.0
2018-May-10 05:58N 36°53' E 030°42'0 0.0
2018-May-10 05:28N 36°53' E 030°42'0 0.0
2018-May-09 16:40N 36°53' E 030°42'0 0.0
2018-May-09 16:28N 36°53' E 030°42'0 0.0
2018-May-09 15:55N 36°53' E 030°42'0 0.0
2018-May-09 15:28N 36°53' E 030°42'0 0.0
2018-May-09 14:55N 36°53' E 030°42'0 0.0
2018-May-09 14:25N 36°53' E 030°42'0 0.0
2018-May-09 13:58N 36°53' E 030°42'0 0.0
2018-May-09 12:43N 36°53' E 030°42'0 0.0
2018-May-09 12:28N 36°53' E 030°42'0 0.0
2018-May-09 11:55N 36°53' E 030°42'0 0.0
2018-May-09 11:07N 36°53' E 030°42'0 0.0
2018-May-09 10:51N 36°53' E 030°42'1 3.2
2018-May-09 10:29N 36°52' E 030°43'1 0.9
2018-May-09 09:11N 36°53' E 030°42'0 0.0
2018-May-09 08:56N 36°53' E 030°42'0 0.0
2018-May-09 06:50N 36°53' E 030°42'0 0.0
2018-May-09 06:11N 36°53' E 030°42'0 0.0
2018-May-09 05:50N 36°53' E 030°42'0 0.0
2018-May-09 05:29N 36°53' E 030°42'0 0.0
2018-May-09 04:53N 36°53' E 030°42'0 0.0
2018-May-09 04:17N 36°53' E 030°42'0 0.0
2018-May-09 03:56N 36°53' E 030°42'0 0.0
2018-May-09 03:23N 36°53' E 030°42'0 0.0
2018-May-09 02:56N 36°53' E 030°42'0 0.0
2018-May-09 02:29N 36°53' E 030°42'0 0.0
2018-May-09 01:59N 36°53' E 030°42'0 0.0
2018-May-09 01:29N 36°53' E 030°42'0 0.0
2018-May-09 00:08N 36°53' E 030°42'0 0.0
2018-May-08 22:44N 36°53' E 030°42'0 0.0
2018-May-08 22:29N 36°53' E 030°42'0 0.0
2018-May-08 13:50N 36°53' E 030°42'0 0.0
2018-May-08 13:20N 36°53' E 030°42'0 0.0
2018-May-08 12:50N 36°53' E 030°42'0 0.0
2018-May-08 12:15N 36°53' E 030°42'1 3.8
2018-May-08 12:00N 36°52' E 030°43'1 1.6
2018-May-08 11:30N 36°52' E 030°43'1 2.6
2018-May-08 10:59N 36°53' E 030°42'0 0.5
2018-May-08 10:16N 36°53' E 030°42'0 0.0
2018-May-08 09:46N 36°53' E 030°42'0 0.0
2018-May-08 08:52N 36°53' E 030°42'0 0.0
2018-May-08 08:28N 36°53' E 030°42'0 0.0
2018-May-08 07:52N 36°53' E 030°42'0 0.0
2018-May-08 07:22N 36°53' E 030°42'0 0.0
2018-May-08 06:58N 36°53' E 030°42'0 0.1
2018-May-08 06:30N 36°53' E 030°42'1 1.8
2018-May-08 06:00N 36°52' E 030°43'1 1.2
2018-May-08 05:12N 36°53' E 030°42'0 0.0
2018-May-08 05:00N 36°53' E 030°42'0 0.0
2018-May-08 04:30N 36°53' E 030°42'0 0.0
2018-May-08 03:54N 36°53' E 030°42'0 0.0
2018-May-08 03:24N 36°53' E 030°42'0 0.0
2018-May-08 02:00N 36°53' E 030°42'0 0.0
2018-May-08 01:24N 36°53' E 030°42'0 0.0
2018-May-08 00:54N 36°53' E 030°42'0 0.0
2018-May-08 00:30N 36°53' E 030°42'0 0.0
2018-May-07 23:57N 36°53' E 030°42'0 0.0
2018-May-07 23:24N 36°53' E 030°42'0 0.0
2018-May-07 23:00N 36°53' E 030°42'0 0.0
2018-May-07 22:30N 36°53' E 030°42'0 0.0
2018-May-07 21:48N 36°53' E 030°42'0 0.0
2018-May-07 21:30N 36°53' E 030°42'0 0.0
2018-May-07 17:54N 36°53' E 030°42'0 0.0
2018-May-07 17:30N 36°53' E 030°42'0 0.0
2018-May-07 16:08N 36°53' E 030°42'0 2.4
2018-May-07 16:00N 36°53' E 030°42'0 0.5
2018-May-07 15:29N 36°53' E 030°42'1 0.6
2018-May-07 14:34N 36°53' E 030°42'0 0.0
2018-May-07 14:28N 36°53' E 030°42'0 0.0
2018-May-07 12:28N 36°53' E 030°42'0 0.0
2018-May-07 11:54N 36°53' E 030°42'1 2.9
2018-May-07 11:30N 36°52' E 030°42'1 2.0
2018-May-07 11:00N 36°53' E 030°42'0 0.2
2018-May-07 10:13N 36°53' E 030°42'0 0.0
2018-May-07 09:37N 36°53' E 030°42'0 3.5
2018-May-07 09:30N 36°53' E 030°42'0 0.4
2018-May-07 08:58N 36°53' E 030°42'0 0.2
2018-May-07 07:25N 36°53' E 030°42'0 0.0
2018-May-07 05:01N 36°53' E 030°42'0 0.0
2018-May-07 04:58N 36°53' E 030°42'0 0.0
2018-May-07 04:28N 36°53' E 030°42'0 0.0
2018-May-06 21:25N 36°53' E 030°42'0 0.0
2018-May-06 17:13N 36°53' E 030°42'0 0.0
2018-May-06 07:07N 36°53' E 030°42'0 0.0
2018-May-06 06:55N 36°53' E 030°42'0 0.0
2018-May-06 04:22N 36°53' E 030°42'0 0.0
2018-May-05 17:22N 36°53' E 030°42'0 0.0
2018-May-05 16:58N 36°53' E 030°42'1 1.2
2018-May-05 16:30N 36°53' E 030°42'1 0.9
2018-May-05 15:41N 36°52' E 030°43'1 2.2
2018-May-05 15:23N 36°52' E 030°42'1 1.3
2018-May-05 14:47N 36°53' E 030°42'0 0.0
2018-May-05 14:29N 36°53' E 030°42'0 0.0
2018-May-05 13:59N 36°53' E 030°42'0 0.0
2018-May-05 13:29N 36°53' E 030°42'2 4.3
2018-May-05 12:57N 36°51' E 030°44'  
Track history (hours):
 
Tides and Currents Weather Stations Pressure Air Temp Water Temp Dewpoint Dewpoint Depression Visibility Wind Speed Wind Dir Waves Ship Positions

Adonis

Last reported at 2018-May-15 12:54 UTC. Time now 2018-Jun-23 06:27 UTC.
Position N 36°53' E 030°42'.
Warning: this ship's position is 38 days out of date.

Length 14 m.

Type: Passenger vessel. MMSI: 271043950.

Date/timePositionNaut miles runAvg speedWind from/ knotsBaromVisibWave heightAir tempDewpointWater temp
2018-May-15 12:54N 36°53' E 030°42'1 2.6
2018-May-15 12:30N 36°52' E 030°42'1 2.1
2018-May-15 12:00N 36°53' E 030°42'0 0.0
2018-May-15 11:30N 36°53' E 030°42'0 0.0
2018-May-15 11:00N 36°53' E 030°42'0 0.0
2018-May-15 10:30N 36°53' E 030°42'0 0.0
2018-May-15 09:48N 36°53' E 030°42'0 0.0
2018-May-15 09:03N 36°53' E 030°42'0 0.0
2018-May-15 09:00N 36°53' E 030°42'0 0.0
2018-May-15 06:24N 36°53' E 030°42'0 0.0
2018-May-15 04:54N 36°53' E 030°42'0 0.0
2018-May-15 04:18N 36°53' E 030°42'0 0.0
2018-May-14 14:23N 36°53' E 030°42'1 3.3
2018-May-14 13:59N 36°52' E 030°43'1 0.4
2018-May-14 10:26N 36°53' E 030°42'0 0.8
2018-May-14 09:59N 36°53' E 030°42'0 0.3
2018-May-14 08:22N 36°53' E 030°42'0 0.0
2018-May-14 07:58N 36°53' E 030°42'0 0.0
2018-May-13 19:40N 36°53' E 030°42'0 0.0
2018-May-13 15:31N 36°53' E 030°42'0 0.0
2018-May-13 15:28N 36°53' E 030°42'0 0.0
2018-May-13 13:10N 36°53' E 030°42'0 0.0
2018-May-13 12:58N 36°53' E 030°42'0 0.0
2018-May-13 12:10N 36°53' E 030°42'0 0.8
2018-May-13 11:41N 36°53' E 030°42'1 6.4
2018-May-13 11:29N 36°52' E 030°43'3 3.1
2018-May-13 10:40N 36°51' E 030°46'1 5.9
2018-May-13 10:30N 36°51' E 030°45'3 1.9
2018-May-13 08:54N 36°53' E 030°42'0 0.0
2018-May-13 08:30N 36°53' E 030°42'0 0.0
2018-May-13 07:57N 36°53' E 030°42'0 0.0
2018-May-13 06:48N 36°53' E 030°42'0 0.0
2018-May-13 06:05N 36°53' E 030°42'0 2.4
2018-May-13 05:57N 36°53' E 030°42'3 5.9
2018-May-13 05:30N 36°51' E 030°45'1 2.5
2018-May-13 04:58N 36°51' E 030°46'3 6.2
2018-May-13 04:29N 36°52' E 030°43'1 2.2
2018-May-13 03:57N 36°53' E 030°42'0 0.0
2018-May-13 02:39N 36°53' E 030°42'0 0.0
2018-May-13 02:27N 36°53' E 030°42'0 0.0
2018-May-13 01:57N 36°53' E 030°42'0 0.0
2018-May-13 01:21N 36°53' E 030°42'0 0.0
2018-May-13 00:57N 36°53' E 030°42'0 0.0
2018-May-13 00:27N 36°53' E 030°42'0 0.0
2018-May-12 23:33N 36°53' E 030°42'0 0.0
2018-May-12 23:27N 36°53' E 030°42'0 0.0
2018-May-12 22:51N 36°53' E 030°42'0 0.0
2018-May-12 22:27N 36°53' E 030°42'0 0.0
2018-May-12 06:19N 36°53' E 030°42'0 0.0
2018-May-12 05:55N 36°53' E 030°42'0 0.0
2018-May-12 05:28N 36°53' E 030°42'0 0.0
2018-May-12 01:28N 36°53' E 030°42'0 0.0
2018-May-11 20:10N 36°53' E 030°42'0 0.0
2018-May-11 19:58N 36°53' E 030°42'0 0.0
2018-May-11 19:28N 36°53' E 030°42'0 0.0
2018-May-11 16:40N 36°53' E 030°42'0 0.0
2018-May-11 16:27N 36°53' E 030°42'1 2.0
2018-May-11 15:58N 36°52' E 030°43'1 0.8
2018-May-11 14:42N 36°53' E 030°42'0 0.0
2018-May-11 14:30N 36°53' E 030°42'0 0.0
2018-May-11 13:39N 36°53' E 030°42'0 0.0
2018-May-11 13:30N 36°53' E 030°42'0 0.1
2018-May-11 12:41N 36°53' E 030°42'1 3.3
2018-May-11 12:28N 36°52' E 030°42'1 1.3
2018-May-11 11:51N 36°53' E 030°42'0 0.2
2018-May-11 11:24N 36°53' E 030°42'0 0.0
2018-May-11 10:51N 36°53' E 030°42'0 0.0
2018-May-11 10:30N 36°53' E 030°42'0 0.0
2018-May-11 09:54N 36°53' E 030°42'0 0.0
2018-May-11 09:30N 36°53' E 030°42'0 0.6
2018-May-11 08:57N 36°53' E 030°42'0 0.6
2018-May-11 08:24N 36°53' E 030°42'0 0.2
2018-May-11 07:52N 36°53' E 030°42'0 0.0
2018-May-11 07:28N 36°53' E 030°42'0 0.0
2018-May-11 06:49N 36°53' E 030°42'0 0.0
2018-May-11 06:22N 36°53' E 030°42'0 0.0
2018-May-11 05:22N 36°53' E 030°42'0 0.0
2018-May-11 04:58N 36°53' E 030°42'0 0.0
2018-May-11 04:16N 36°53' E 030°42'0 0.0
2018-May-11 03:46N 36°53' E 030°42'0 0.0
2018-May-11 01:22N 36°53' E 030°42'0 0.0
2018-May-11 00:55N 36°53' E 030°42'0 0.0
2018-May-11 00:25N 36°53' E 030°42'0 0.0
2018-May-10 23:52N 36°53' E 030°42'0 0.0
2018-May-10 23:28N 36°53' E 030°42'0 0.0
2018-May-10 22:55N 36°53' E 030°42'0 0.0
2018-May-10 21:58N 36°53' E 030°42'0 0.0
2018-May-10 17:10N 36°53' E 030°42'0 0.0
2018-May-10 14:55N 36°53' E 030°42'0 0.0
2018-May-10 14:13N 36°53' E 030°42'0 0.0
2018-May-10 13:16N 36°53' E 030°42'0 0.0
2018-May-10 12:58N 36°53' E 030°42'0 0.0
2018-May-10 12:28N 36°53' E 030°42'0 0.0
2018-May-10 10:19N 36°53' E 030°42'0 0.1
2018-May-10 09:59N 36°53' E 030°42'0 0.8
2018-May-10 09:30N 36°53' E 030°42'0 0.5
2018-May-10 08:40N 36°53' E 030°42'0 0.0
2018-May-10 08:28N 36°53' E 030°42'0 0.0
2018-May-10 07:49N 36°53' E 030°42'0 0.0
2018-May-10 06:04N 36°53' E 030°42'0 0.0
2018-May-10 05:58N 36°53' E 030°42'0 0.0
2018-May-10 05:28N 36°53' E 030°42'0 0.0
2018-May-09 16:40N 36°53' E 030°42'0 0.0
2018-May-09 16:28N 36°53' E 030°42'0 0.0
2018-May-09 15:55N 36°53' E 030°42'0 0.0
2018-May-09 15:28N 36°53' E 030°42'0 0.0
2018-May-09 14:55N 36°53' E 030°42'0 0.0
2018-May-09 14:25N 36°53' E 030°42'0 0.0
2018-May-09 13:58N 36°53' E 030°42'0 0.0
2018-May-09 12:43N 36°53' E 030°42'0 0.0
2018-May-09 12:28N 36°53' E 030°42'0 0.0
2018-May-09 11:55N 36°53' E 030°42'0 0.0
2018-May-09 11:07N 36°53' E 030°42'0 0.0
2018-May-09 10:51N 36°53' E 030°42'1 3.2
2018-May-09 10:29N 36°52' E 030°43'1 0.9
2018-May-09 09:11N 36°53' E 030°42'0 0.0
2018-May-09 08:56N 36°53' E 030°42'0 0.0
2018-May-09 06:50N 36°53' E 030°42'0 0.0
2018-May-09 06:11N 36°53' E 030°42'0 0.0
2018-May-09 05:50N 36°53' E 030°42'0 0.0
2018-May-09 05:29N 36°53' E 030°42'0 0.0
2018-May-09 04:53N 36°53' E 030°42'0 0.0
2018-May-09 04:17N 36°53' E 030°42'0 0.0
2018-May-09 03:56N 36°53' E 030°42'0 0.0
2018-May-09 03:23N 36°53' E 030°42'0 0.0
2018-May-09 02:56N 36°53' E 030°42'0 0.0
2018-May-09 02:29N 36°53' E 030°42'0 0.0
2018-May-09 01:59N 36°53' E 030°42'0 0.0
2018-May-09 01:29N 36°53' E 030°42'0 0.0
2018-May-09 00:08N 36°53' E 030°42'0 0.0
2018-May-08 22:44N 36°53' E 030°42'0 0.0
2018-May-08 22:29N 36°53' E 030°42'0 0.0
2018-May-08 13:50N 36°53' E 030°42'0 0.0
2018-May-08 13:20N 36°53' E 030°42'0 0.0
2018-May-08 12:50N 36°53' E 030°42'0 0.0
2018-May-08 12:15N 36°53' E 030°42'1 3.8
2018-May-08 12:00N 36°52' E 030°43'1 1.6
2018-May-08 11:30N 36°52' E 030°43'1 2.6
2018-May-08 10:59N 36°53' E 030°42'0 0.5
2018-May-08 10:16N 36°53' E 030°42'0 0.0
2018-May-08 09:46N 36°53' E 030°42'0 0.0
2018-May-08 08:52N 36°53' E 030°42'0 0.0
2018-May-08 08:28N 36°53' E 030°42'0 0.0
2018-May-08 07:52N 36°53' E 030°42'0 0.0
2018-May-08 07:22N 36°53' E 030°42'0 0.0
2018-May-08 06:58N 36°53' E 030°42'0 0.1
2018-May-08 06:30N 36°53' E 030°42'1 1.8
2018-May-08 06:00N 36°52' E 030°43'1 1.2
2018-May-08 05:12N 36°53' E 030°42'0 0.0
2018-May-08 05:00N 36°53' E 030°42'0 0.0
2018-May-08 04:30N 36°53' E 030°42'0 0.0
2018-May-08 03:54N 36°53' E 030°42'0 0.0
2018-May-08 03:24N 36°53' E 030°42'0 0.0
2018-May-08 02:00N 36°53' E 030°42'0 0.0
2018-May-08 01:24N 36°53' E 030°42'0 0.0
2018-May-08 00:54N 36°53' E 030°42'0 0.0
2018-May-08 00:30N 36°53' E 030°42'0 0.0
2018-May-07 23:57N 36°53' E 030°42'0 0.0
2018-May-07 23:24N 36°53' E 030°42'0 0.0
2018-May-07 23:00N 36°53' E 030°42'0 0.0
2018-May-07 22:30N 36°53' E 030°42'0 0.0
2018-May-07 21:48N 36°53' E 030°42'0 0.0
2018-May-07 21:30N 36°53' E 030°42'0 0.0
2018-May-07 17:54N 36°53' E 030°42'0 0.0
2018-May-07 17:30N 36°53' E 030°42'0 0.0
2018-May-07 16:08N 36°53' E 030°42'0 2.4
2018-May-07 16:00N 36°53' E 030°42'0 0.5
2018-May-07 15:29N 36°53' E 030°42'1 0.6
2018-May-07 14:34N 36°53' E 030°42'0 0.0
2018-May-07 14:28N 36°53' E 030°42'0 0.0
2018-May-07 12:28N 36°53' E 030°42'0 0.0
2018-May-07 11:54N 36°53' E 030°42'1 2.9
2018-May-07 11:30N 36°52' E 030°42'1 2.0
2018-May-07 11:00N 36°53' E 030°42'0 0.2
2018-May-07 10:13N 36°53' E 030°42'0 0.0
2018-May-07 09:37N 36°53' E 030°42'0 3.5
2018-May-07 09:30N 36°53' E 030°42'0 0.4
2018-May-07 08:58N 36°53' E 030°42'0 0.2
2018-May-07 07:25N 36°53' E 030°42'0 0.0
2018-May-07 05:01N 36°53' E 030°42'0 0.0
2018-May-07 04:58N 36°53' E 030°42'0 0.0
2018-May-07 04:28N 36°53' E 030°42'0 0.0
2018-May-06 21:25N 36°53' E 030°42'0 0.0
2018-May-06 17:13N 36°53' E 030°42'0 0.0
2018-May-06 07:07N 36°53' E 030°42'0 0.0
2018-May-06 06:55N 36°53' E 030°42'0 0.0
2018-May-06 04:22N 36°53' E 030°42'0 0.0
2018-May-05 17:22N 36°53' E 030°42'0 0.0
2018-May-05 16:58N 36°53' E 030°42'1 1.2
2018-May-05 16:30N 36°53' E 030°42'1 0.9
2018-May-05 15:41N 36°52' E 030°43'1 2.2
2018-May-05 15:23N 36°52' E 030°42'1 1.3
2018-May-05 14:47N 36°53' E 030°42'0 0.0
2018-May-05 14:29N 36°53' E 030°42'0 0.0
2018-May-05 13:59N 36°53' E 030°42'0 0.0
2018-May-05 13:29N 36°53' E 030°42'2 4.3
2018-May-05 12:57N 36°51' E 030°44'  

Dump ship's entire track history